Time;durP1;ratioP1;P1;durP2;ratioP2;P2;SDS_P1;SDS_P2;PMS_P1;PMS_P2;Temp;Humidity;BMP_temperature;BMP_pressure;BME280_temperature;BME280_humidity;BME280_pressure;Samples;Min_cycle;Max_cycle;Signal;HPM_P1;HPM_P2
2023/04/18 00:01:53;;;;;;;11.87;7.10;;;10.90;53.50;;;;;;4981170;28;20055;-71
2023/04/18 00:04:20;;;;;;;13.57;7.47;;;10.90;53.60;;;;;;4988042;28;20058;-71
2023/04/18 00:06:48;;;;;;;12.02;7.80;;;10.90;53.60;;;;;;4982410;28;20133;-71
2023/04/18 00:09:17;;;;;;;11.60;6.88;;;10.90;53.50;;;;;;4990262;28;20524;-71
2023/04/18 00:11:44;;;;;;;12.13;7.80;;;10.90;53.60;;;;;;4988883;28;20086;-71
2023/04/18 00:14:11;;;;;;;13.63;7.80;;;10.80;53.60;;;;;;4972071;28;20536;-71
2023/04/18 00:16:38;;;;;;;11.35;7.50;;;10.80;53.70;;;;;;4977909;28;20054;-71
2023/04/18 00:19:05;;;;;;;13.52;8.77;;;10.80;53.60;;;;;;5000232;28;20055;-71
2023/04/18 00:21:32;;;;;;;11.93;7.50;;;10.70;53.50;;;;;;5008871;28;20577;-71
2023/04/18 00:23:59;;;;;;;13.02;7.70;;;10.70;53.50;;;;;;4989770;28;20080;-71
2023/04/18 00:26:27;;;;;;;12.00;6.77;;;10.60;53.70;;;;;;4994740;28;20046;-71
2023/04/18 00:28:55;;;;;;;12.82;7.25;;;10.60;53.90;;;;;;4989076;28;20055;-71
2023/04/18 00:31:22;;;;;;;11.45;7.50;;;10.50;53.80;;;;;;4991945;28;20105;-71
2023/04/18 00:33:51;;;;;;;11.40;7.25;;;10.50;54.00;;;;;;4973015;28;20061;-71
2023/04/18 00:36:17;;;;;;;12.40;7.65;;;10.40;54.20;;;;;;5008564;28;20058;-71
2023/04/18 00:38:45;;;;;;;11.70;7.30;;;10.40;54.60;;;;;;5008525;28;20054;-71
2023/04/18 00:41:14;;;;;;;12.23;7.35;;;10.30;54.60;;;;;;4989863;28;21174;-71
2023/04/18 00:43:43;;;;;;;12.00;7.35;;;10.30;54.80;;;;;;4990854;28;20133;-71
2023/04/18 00:46:10;;;;;;;13.50;7.30;;;10.20;54.90;;;;;;4974765;28;20054;-71
2023/04/18 00:48:38;;;;;;;12.85;7.38;;;10.20;55.00;;;;;;4977304;28;20043;-71
2023/04/18 00:51:06;;;;;;;10.87;6.80;;;10.10;55.20;;;;;;4982295;28;20206;-71
2023/04/18 00:53:33;;;;;;;10.63;6.82;;;10.10;55.40;;;;;;4990505;28;20165;-71
2023/04/18 00:56:00;;;;;;;12.00;7.25;;;10.10;55.40;;;;;;4974428;28;20614;-71
2023/04/18 00:58:27;;;;;;;12.63;7.00;;;10.00;55.40;;;;;;4990769;28;20070;-71
2023/04/18 01:00:55;;;;;;;12.90;7.00;;;10.00;55.60;;;;;;4973361;28;20058;-71
2023/04/18 01:03:23;;;;;;;13.70;7.40;;;10.00;55.80;;;;;;4974092;28;20157;-71
2023/04/18 01:05:50;;;;;;;11.95;6.75;;;10.00;56.00;;;;;;5008158;28;20567;-71
2023/04/18 01:08:18;;;;;;;12.38;6.43;;;9.80;56.10;;;;;;4990558;28;20051;-71
2023/04/18 01:10:45;;;;;;;11.63;6.82;;;9.80;56.40;;;;;;4971061;28;20450;-71
2023/04/18 01:13:13;;;;;;;13.68;7.28;;;9.80;56.40;;;;;;4973727;28;20042;-71
2023/04/18 01:15:42;;;;;;;11.83;6.90;;;9.80;56.50;;;;;;4990283;28;20080;-71
2023/04/18 01:18:10;;;;;;;11.52;7.22;;;9.70;56.50;;;;;;4974199;28;20059;-71
2023/04/18 01:20:44;;;;;;;10.98;7.13;;;9.70;56.70;;;;;;4976897;28;20066;-71
2023/04/18 01:23:12;;;;;;;12.93;7.10;;;9.60;56.90;;;;;;4996094;28;20543;-71
2023/04/18 01:25:40;;;;;;;11.02;6.80;;;9.60;57.00;;;;;;4982539;28;20078;-71
2023/04/18 01:28:07;;;;;;;13.10;7.47;;;9.70;57.20;;;;;;4973829;28;20513;-71
2023/04/18 01:30:34;;;;;;;11.02;7.40;;;9.60;57.20;;;;;;4970672;28;20046;-71
2023/04/18 01:33:02;;;;;;;13.07;7.78;;;9.60;57.30;;;;;;4984162;28;20106;-70
2023/04/18 01:35:29;;;;;;;13.68;6.55;;;9.60;57.40;;;;;;5006965;28;20061;-71
2023/04/18 01:37:57;;;;;;;13.10;6.70;;;9.50;57.60;;;;;;5002604;28;20541;-71
2023/04/18 01:40:24;;;;;;;11.80;7.27;;;9.50;57.50;;;;;;4989359;28;20054;-71
2023/04/18 01:42:54;;;;;;;10.23;6.57;;;9.40;57.70;;;;;;4981924;28;20047;-71
2023/04/18 01:45:21;;;;;;;11.18;7.18;;;9.40;57.80;;;;;;4973777;28;20061;-71
2023/04/18 01:47:48;;;;;;;12.05;7.47;;;9.40;58.00;;;;;;4973719;28;20117;-71
2023/04/18 01:50:16;;;;;;;12.15;7.10;;;9.40;58.50;;;;;;4972952;28;20050;-71
2023/04/18 01:52:43;;;;;;;11.33;7.10;;;9.40;58.60;;;;;;4972703;28;20078;-72
2023/04/18 01:55:10;;;;;;;12.68;7.13;;;9.40;58.50;;;;;;4977636;28;20617;-71
2023/04/18 01:57:38;;;;;;;11.95;6.88;;;9.40;58.70;;;;;;5000490;28;20050;-71
2023/04/18 02:00:07;;;;;;;14.25;7.30;;;9.30;58.70;;;;;;5003114;28;20221;-71
2023/04/18 02:02:44;;;;;;;12.52;6.78;;;9.30;58.90;;;;;;5007208;28;20054;-71
2023/04/18 02:05:11;;;;;;;12.53;6.87;;;9.30;59.00;;;;;;4989838;28;20289;-71
2023/04/18 02:07:39;;;;;;;11.05;6.90;;;9.20;59.10;;;;;;4989560;28;20046;-71
2023/04/18 02:10:08;;;;;;;11.13;6.43;;;9.20;59.10;;;;;;4988814;28;20046;-71
2023/04/18 02:12:35;;;;;;;10.68;6.60;;;9.20;59.30;;;;;;4973482;28;20054;-71
2023/04/18 02:15:02;;;;;;;11.82;6.78;;;9.20;59.40;;;;;;4973588;28;20077;-71
2023/04/18 02:17:30;;;;;;;11.20;6.70;;;9.20;59.60;;;;;;4988252;28;20420;-71
2023/04/18 02:19:57;;;;;;;11.48;6.90;;;9.20;59.70;;;;;;4989130;28;20137;-71
2023/04/18 02:22:24;;;;;;;12.02;6.63;;;9.20;59.70;;;;;;4994577;28;20092;-71
2023/04/18 02:24:51;;;;;;;11.52;6.97;;;9.20;59.90;;;;;;5009316;28;20054;-71
2023/04/18 02:27:18;;;;;;;13.30;7.00;;;9.20;60.00;;;;;;4998953;28;20145;-71
2023/04/18 02:29:45;;;;;;;15.43;7.10;;;9.20;60.10;;;;;;4988588;28;20156;-71
2023/04/18 02:32:12;;;;;;;13.07;7.32;;;9.10;60.30;;;;;;4973308;28;20049;-71
2023/04/18 02:34:41;;;;;;;12.20;7.20;;;9.00;60.60;;;;;;4988483;28;20113;-71
2023/04/18 02:37:08;;;;;;;12.60;6.93;;;9.00;60.70;;;;;;5002844;28;20057;-71
2023/04/18 02:39:35;;;;;;;12.50;7.25;;;9.00;60.90;;;;;;4989141;28;20611;-71
2023/04/18 02:42:02;;;;;;;12.10;6.93;;;9.00;61.10;;;;;;4972754;28;21232;-71
2023/04/18 02:44:29;;;;;;;12.68;7.25;;;9.00;61.40;;;;;;4989605;28;20665;-71
2023/04/18 02:46:56;;;;;;;12.05;6.97;;;8.90;61.50;;;;;;4990481;28;20081;-71
2023/04/18 02:49:23;;;;;;;13.50;7.00;;;8.90;61.60;;;;;;4992162;28;20085;-71
2023/04/18 02:51:54;;;;;;;14.30;7.88;;;8.90;61.70;;;;;;4992383;28;20094;-71
2023/04/18 02:54:21;;;;;;;14.10;7.30;;;8.90;61.90;;;;;;4983089;28;20117;-71
2023/04/18 02:56:55;;;;;;;12.02;6.88;;;8.90;62.20;;;;;;4978435;28;20055;-71
2023/04/18 02:59:36;;;;;;;13.13;7.80;;;8.90;62.40;;;;;;5007041;28;20137;-71
2023/04/18 03:02:29;;;;;;;13.68;7.88;;;8.90;62.30;;;;;;4989516;28;20097;-71
2023/04/18 03:05:02;;;;;;;15.98;7.68;;;8.90;62.50;;;;;;4998616;28;20431;-71
2023/04/18 03:07:30;;;;;;;14.17;7.33;;;8.90;62.60;;;;;;4990999;28;20125;-71
2023/04/18 03:09:58;;;;;;;11.88;7.20;;;8.90;62.60;;;;;;4989356;28;20345;-71
2023/04/18 03:12:30;;;;;;;12.55;7.47;;;8.90;62.70;;;;;;4991441;28;20124;-71
2023/04/18 03:14:57;;;;;;;14.27;7.88;;;8.90;62.80;;;;;;4974903;28;20570;-71
2023/04/18 03:17:24;;;;;;;12.85;7.05;;;8.90;62.80;;;;;;4991562;28;20054;-72
2023/04/18 03:19:52;;;;;;;11.60;7.07;;;8.90;63.00;;;;;;4991732;28;20054;-71
2023/04/18 03:22:20;;;;;;;12.27;7.28;;;8.90;63.10;;;;;;4992058;28;20050;-71
2023/04/18 03:24:55;;;;;;;12.85;7.25;;;8.90;63.00;;;;;;4985261;28;20050;-71
2023/04/18 03:27:28;;;;;;;13.35;7.25;;;9.00;62.90;;;;;;4991020;28;20647;-71
2023/04/18 03:29:55;;;;;;;13.32;6.85;;;8.90;63.00;;;;;;4991108;28;20844;-71
2023/04/18 03:32:22;;;;;;;13.83;7.57;;;8.90;63.00;;;;;;4992088;28;20125;-71
2023/04/18 03:34:51;;;;;;;12.25;6.90;;;8.90;63.10;;;;;;4975611;28;20062;-71
2023/04/18 03:37:18;;;;;;;11.65;6.85;;;8.90;63.20;;;;;;4988419;28;20055;-71
2023/04/18 03:39:50;;;;;;;11.23;6.60;;;8.90;63.20;;;;;;4986962;28;20059;-71
2023/04/18 03:42:19;;;;;;;13.93;7.10;;;8.90;63.40;;;;;;4975625;28;20801;-71
2023/04/18 03:44:46;;;;;;;13.23;7.40;;;8.90;63.30;;;;;;4991457;28;20052;-71
2023/04/18 03:47:14;;;;;;;13.43;6.75;;;8.90;63.40;;;;;;4996745;28;20050;-71
2023/04/18 03:49:43;;;;;;;13.48;7.13;;;8.90;63.40;;;;;;4998669;28;20054;-71
2023/04/18 03:52:11;;;;;;;11.52;6.43;;;8.90;63.50;;;;;;4991571;28;20549;-71
2023/04/18 03:54:38;;;;;;;12.80;7.13;;;9.00;63.50;;;;;;4991671;28;20133;-70
2023/04/18 03:57:05;;;;;;;12.50;7.27;;;8.90;63.60;;;;;;4986386;28;20343;-71
2023/04/18 03:59:38;;;;;;;13.13;6.90;;;8.90;63.60;;;;;;4974942;28;20050;-71
2023/04/18 04:02:06;;;;;;;12.77;6.22;;;8.90;63.60;;;;;;4991827;28;20091;-72
2023/04/18 04:04:33;;;;;;;12.45;7.15;;;8.90;63.70;;;;;;4982564;28;20532;-71
2023/04/18 04:07:00;;;;;;;13.00;6.47;;;8.90;63.90;;;;;;5008109;28;20502;-71
2023/04/18 04:09:27;;;;;;;13.40;6.97;;;8.90;64.00;;;;;;4981042;28;20410;-71
2023/04/18 04:11:54;;;;;;;13.13;7.10;;;8.80;64.00;;;;;;4991098;28;20539;-71
2023/04/18 04:14:23;;;;;;;12.43;6.95;;;8.80;64.10;;;;;;4990544;28;20050;-71
2023/04/18 04:16:52;;;;;;;11.98;6.45;;;8.80;64.10;;;;;;4971179;28;20054;-71
2023/04/18 04:19:20;;;;;;;12.98;6.85;;;8.80;64.30;;;;;;4961285;28;20101;-71
2023/04/18 04:22:07;;;;;;;13.20;7.10;;;8.80;64.30;;;;;;4982979;28;20432;-71
2023/04/18 04:24:37;;;;;;;13.27;7.00;;;8.80;64.40;;;;;;4995118;28;20046;-71
2023/04/18 04:27:05;;;;;;;13.10;6.63;;;8.80;64.40;;;;;;4974163;28;20047;-71
2023/04/18 04:29:37;;;;;;;15.00;7.75;;;8.80;64.40;;;;;;4989958;28;20058;-71
2023/04/18 04:32:06;;;;;;;12.98;6.68;;;8.80;64.40;;;;;;4982433;28;20038;-71
2023/04/18 04:34:40;;;;;;;13.70;7.00;;;8.80;64.50;;;;;;4974124;28;20054;-70
2023/04/18 04:37:08;;;;;;;13.35;6.68;;;8.80;64.40;;;;;;4990784;28;20078;-71
2023/04/18 04:39:43;;;;;;;12.20;6.72;;;8.80;64.50;;;;;;4995075;28;20053;-70
2023/04/18 04:42:27;;;;;;;11.30;6.68;;;8.70;64.60;;;;;;4991023;28;20501;-71
2023/04/18 04:45:01;;;;;;;12.70;6.90;;;8.80;64.60;;;;;;4976086;28;20054;-71
2023/04/18 04:47:29;;;;;;;13.43;6.70;;;8.70;64.70;;;;;;4990897;28;20053;-71
2023/04/18 04:49:56;;;;;;;12.82;6.97;;;8.70;64.70;;;;;;4989636;28;20051;-71
2023/04/18 04:52:23;;;;;;;14.90;7.32;;;8.70;65.00;;;;;;4974387;28;20055;-71
2023/04/18 04:54:51;;;;;;;13.20;7.07;;;8.70;64.90;;;;;;4990621;28;20571;-70
2023/04/18 04:57:20;;;;;;;12.43;6.72;;;8.70;65.00;;;;;;4976439;28;20519;-71
2023/04/18 04:59:47;;;;;;;13.87;7.00;;;8.70;65.10;;;;;;4989618;28;20050;-70
2023/04/18 05:02:14;;;;;;;14.90;7.70;;;8.70;65.20;;;;;;4991795;28;20473;-71
2023/04/18 05:04:43;;;;;;;14.15;6.72;;;8.60;65.20;;;;;;4990846;28;20042;-71
2023/04/18 05:07:10;;;;;;;14.25;7.40;;;8.70;65.40;;;;;;5003947;28;20130;-71
2023/04/18 05:09:37;;;;;;;13.77;7.45;;;8.60;65.50;;;;;;4987620;28;20054;-71
2023/04/18 05:12:05;;;;;;;13.63;6.50;;;8.60;65.70;;;;;;5019143;28;20926;-71
2023/04/18 05:14:32;;;;;;;15.82;7.20;;;8.60;65.60;;;;;;4998561;28;21017;-71
2023/04/18 05:16:59;;;;;;;13.00;7.60;;;8.60;66.10;;;;;;5007111;28;20059;-70
2023/04/18 05:19:27;;;;;;;12.07;6.75;;;8.60;66.20;;;;;;4997754;28;20051;-71
2023/04/18 05:21:56;;;;;;;12.57;7.13;;;8.50;66.10;;;;;;4998906;28;20753;-71
2023/04/18 05:24:23;;;;;;;11.60;7.00;;;8.50;66.40;;;;;;4990530;28;20050;-71
2023/04/18 05:26:50;;;;;;;14.57;7.85;;;8.50;66.50;;;;;;5008185;28;20062;-71
2023/04/18 05:29:17;;;;;;;14.20;7.22;;;8.50;66.90;;;;;;4989769;28;20046;-71
2023/04/18 05:31:44;;;;;;;12.75;6.82;;;8.50;66.80;;;;;;4995337;28;20070;-71
2023/04/18 05:34:11;;;;;;;14.45;7.60;;;8.50;66.70;;;;;;4979176;28;20134;-71
2023/04/18 05:36:38;;;;;;;12.63;6.23;;;8.50;66.80;;;;;;4998549;28;20336;-71
2023/04/18 05:39:07;;;;;;;15.10;7.07;;;8.50;66.80;;;;;;4984825;28;20492;-71
2023/04/18 05:41:34;;;;;;;14.25;6.93;;;8.50;66.80;;;;;;5015070;28;20064;-70
2023/04/18 05:44:01;;;;;;;11.98;6.30;;;8.50;66.80;;;;;;4990540;28;20057;-70
2023/04/18 05:46:28;;;;;;;12.40;6.88;;;8.50;66.80;;;;;;5008435;28;20046;-71
2023/04/18 05:48:55;;;;;;;11.77;6.70;;;8.50;67.00;;;;;;4989547;28;20097;-71
2023/04/18 05:51:23;;;;;;;13.15;6.60;;;8.50;67.10;;;;;;4987993;28;20154;-70
2023/04/18 05:53:50;;;;;;;14.50;7.13;;;8.40;67.30;;;;;;5008222;28;20050;-71
2023/04/18 05:56:18;;;;;;;14.15;6.75;;;8.50;67.30;;;;;;5007995;28;20057;-71
2023/04/18 05:58:46;;;;;;;15.65;7.40;;;8.50;67.40;;;;;;4989209;28;20055;-71
2023/04/18 06:01:15;;;;;;;12.97;6.97;;;8.50;67.20;;;;;;5002647;28;20137;-71
2023/04/18 06:03:42;;;;;;;14.00;6.78;;;8.50;67.30;;;;;;4989622;28;20910;-71
2023/04/18 06:06:09;;;;;;;13.18;7.10;;;8.50;67.50;;;;;;4968220;28;20042;-71
2023/04/18 06:08:39;;;;;;;13.35;6.65;;;8.50;67.50;;;;;;5015992;28;20453;-71
2023/04/18 06:11:07;;;;;;;14.13;7.35;;;8.50;67.60;;;;;;5013293;28;20129;-71
2023/04/18 06:13:37;;;;;;;14.80;7.53;;;8.50;67.60;;;;;;5014818;28;20053;-71
2023/04/18 06:16:04;;;;;;;15.10;7.80;;;8.50;67.60;;;;;;5013102;28;20060;-71
2023/04/18 06:18:31;;;;;;;16.10;7.70;;;8.50;67.80;;;;;;4994022;28;20054;-71
2023/04/18 06:20:58;;;;;;;15.23;6.63;;;8.50;67.90;;;;;;5003272;28;20664;-71
2023/04/18 06:23:25;;;;;;;13.98;7.45;;;8.50;68.00;;;;;;5017764;28;20425;-71
2023/04/18 06:25:52;;;;;;;13.63;7.00;;;8.60;68.30;;;;;;5002790;28;20519;-71
2023/04/18 06:28:19;;;;;;;14.60;6.63;;;8.50;68.00;;;;;;5010763;28;20054;-71
2023/04/18 06:30:48;;;;;;;14.00;7.45;;;8.60;68.00;;;;;;5020442;28;20509;-71
2023/04/18 06:33:15;;;;;;;15.65;8.15;;;8.60;68.10;;;;;;5009553;28;20046;-71
2023/04/18 06:35:42;;;;;;;13.02;7.65;;;8.50;68.20;;;;;;4994426;28;20129;-71
2023/04/18 06:38:11;;;;;;;15.70;7.47;;;8.50;68.10;;;;;;4996832;28;20057;-71
2023/04/18 06:40:38;;;;;;;14.80;7.22;;;8.60;67.90;;;;;;5002648;28;20059;-71
2023/04/18 06:43:05;;;;;;;13.43;7.40;;;8.50;68.00;;;;;;4981885;28;20489;-71
2023/04/18 06:45:32;;;;;;;13.73;7.60;;;8.50;68.20;;;;;;4992523;28;20142;-71
2023/04/18 06:48:03;;;;;;;13.38;7.13;;;8.60;68.30;;;;;;5003098;28;20073;-71
2023/04/18 06:50:30;;;;;;;13.40;7.17;;;8.60;68.40;;;;;;4986189;28;20133;-71
2023/04/18 06:52:57;;;;;;;13.35;7.40;;;8.60;68.30;;;;;;4991523;28;20062;-71
2023/04/18 06:55:25;;;;;;;13.10;7.18;;;8.60;68.20;;;;;;5022758;28;20081;-71
2023/04/18 06:57:52;;;;;;;12.45;7.18;;;8.60;68.30;;;;;;5003571;28;20136;-71
2023/04/18 07:00:20;;;;;;;13.05;7.00;;;8.60;68.20;;;;;;4995193;28;20086;-71
2023/04/18 07:02:48;;;;;;;13.97;7.03;;;8.70;68.10;;;;;;5001610;28;20052;-71
2023/04/18 07:05:34;;;;;;;12.18;7.03;;;8.80;68.10;;;;;;5023765;28;20114;-71
2023/04/18 07:08:01;;;;;;;12.93;6.30;;;8.80;68.30;;;;;;5001470;28;20053;-71
2023/04/18 07:10:29;;;;;;;12.82;6.65;;;8.80;68.20;;;;;;5021246;28;20058;-71
2023/04/18 07:12:56;;;;;;;10.80;6.63;;;8.90;67.90;;;;;;5008471;28;20137;-71
2023/04/18 07:15:23;;;;;;;12.00;6.07;;;8.90;67.80;;;;;;5027623;28;20060;-71
2023/04/18 07:17:50;;;;;;;11.93;6.22;;;8.90;67.60;;;;;;4992779;28;20054;-71
2023/04/18 07:20:17;;;;;;;10.73;5.90;;;8.90;67.70;;;;;;4990085;28;20153;-71
2023/04/18 07:22:46;;;;;;;12.23;6.65;;;9.00;67.50;;;;;;4990135;28;20084;-71
2023/04/18 07:25:14;;;;;;;11.45;5.75;;;9.00;67.20;;;;;;4993044;28;20054;-71
2023/04/18 07:27:41;;;;;;;10.10;5.93;;;9.00;67.50;;;;;;4987968;28;20039;-71
2023/04/18 07:30:09;;;;;;;11.05;5.10;;;9.00;67.40;;;;;;5004304;28;20137;-72
2023/04/18 07:32:36;;;;;;;11.85;6.25;;;9.10;67.20;;;;;;4986218;28;20051;-71
2023/04/18 07:35:04;;;;;;;11.35;5.68;;;9.10;67.10;;;;;;5008399;28;20058;-71
2023/04/18 07:37:31;;;;;;;9.48;5.32;;;9.20;67.00;;;;;;4993424;28;20046;-71
2023/04/18 07:39:59;;;;;;;9.80;5.73;;;9.20;66.80;;;;;;5008176;28;20051;-72
2023/04/18 07:42:27;;;;;;;10.05;5.30;;;9.20;66.60;;;;;;4985460;28;20054;-72
2023/04/18 07:44:57;;;;;;;10.20;5.32;;;9.30;67.10;;;;;;4993596;28;20078;-71
2023/04/18 07:47:25;;;;;;;9.65;5.35;;;9.40;67.40;;;;;;5001671;28;20053;-72
2023/04/18 07:49:52;;;;;;;9.23;4.78;;;9.40;66.90;;;;;;5022694;28;20485;-71
2023/04/18 07:52:19;;;;;;;9.70;5.53;;;9.50;66.60;;;;;;5021004;28;20153;-72
2023/04/18 07:54:46;;;;;;;10.15;5.30;;;9.50;66.30;;;;;;5013656;28;20086;-71
2023/04/18 07:57:14;;;;;;;10.18;5.72;;;9.60;66.30;;;;;;5010067;28;20135;-71
2023/04/18 07:59:41;;;;;;;10.32;5.22;;;9.60;66.20;;;;;;4993915;28;20059;-71
2023/04/18 08:02:08;;;;;;;11.90;6.15;;;9.70;66.30;;;;;;4989880;28;20054;-71
2023/04/18 08:04:36;;;;;;;18.60;6.40;;;9.70;65.70;;;;;;4991099;28;20054;-71
2023/04/18 08:07:03;;;;;;;13.57;6.65;;;9.80;65.70;;;;;;5004674;28;20050;-71
2023/04/18 08:09:30;;;;;;;14.45;6.80;;;9.80;65.60;;;;;;4993700;28;20062;-71
2023/04/18 08:11:57;;;;;;;10.25;5.63;;;9.80;65.40;;;;;;4990748;28;20137;-71
2023/04/18 08:14:26;;;;;;;11.05;5.90;;;9.80;65.20;;;;;;4991448;28;20042;-71
2023/04/18 08:16:53;;;;;;;11.73;6.50;;;10.00;65.50;;;;;;5023671;28;20797;-71
2023/04/18 08:19:20;;;;;;;12.30;5.97;;;10.00;65.50;;;;;;5025600;28;20137;-71
2023/04/18 08:21:51;;;;;;;12.32;6.68;;;10.00;65.70;;;;;;5025618;28;20216;-71
2023/04/18 08:24:18;;;;;;;12.80;6.15;;;10.10;65.60;;;;;;5005522;28;20046;-71
2023/04/18 08:26:45;;;;;;;11.55;6.70;;;10.10;65.50;;;;;;5003413;28;20042;-71
2023/04/18 08:29:12;;;;;;;11.43;6.23;;;10.10;65.30;;;;;;5004495;28;20531;-71
2023/04/18 08:31:40;;;;;;;53.83;9.52;;;10.20;65.30;;;;;;5005294;28;20473;-71
2023/04/18 08:34:07;;;;;;;16.80;7.00;;;10.20;65.20;;;;;;5003582;28;20054;-71
2023/04/18 08:36:35;;;;;;;14.43;6.28;;;10.20;65.30;;;;;;5025167;28;20145;-71
2023/04/18 08:39:02;;;;;;;16.33;6.88;;;10.30;65.00;;;;;;5004400;28;20062;-71
2023/04/18 08:41:32;;;;;;;12.63;6.50;;;10.30;64.90;;;;;;5008561;28;20065;-70
2023/04/18 08:44:00;;;;;;;11.68;6.13;;;10.30;65.10;;;;;;5002707;28;20181;-71
2023/04/18 08:46:28;;;;;;;11.00;6.40;;;10.30;65.10;;;;;;4989784;28;20053;-71
2023/04/18 08:48:59;;;;;;;12.73;6.75;;;10.30;65.30;;;;;;5001599;28;20096;-71
2023/04/18 08:51:31;;;;;;;12.02;7.15;;;10.30;65.20;;;;;;5005909;28;20050;-71
2023/04/18 08:54:01;;;;;;;12.40;6.60;;;10.40;65.20;;;;;;5005654;28;20050;-71
2023/04/18 08:56:28;;;;;;;10.88;6.35;;;10.40;65.30;;;;;;5006206;28;20057;-71
2023/04/18 08:58:58;;;;;;;11.38;6.43;;;10.40;65.50;;;;;;5003098;28;20051;-71
2023/04/18 09:01:51;;;;;;;12.00;6.28;;;10.40;65.60;;;;;;4995683;28;20061;-72
2023/04/18 09:04:34;;;;;;;12.52;6.78;;;10.50;65.80;;;;;;4998027;28;20077;-73
2023/04/18 09:07:01;;;;;;;13.03;6.37;;;10.50;65.60;;;;;;5005229;28;20125;-73
2023/04/18 09:09:39;;;;;;;11.55;6.32;;;10.50;65.60;;;;;;5012158;28;20608;-73
2023/04/18 09:12:08;;;;;;;26.92;7.10;;;10.50;65.60;;;;;;5002767;28;20081;-73
2023/04/18 09:14:36;;;;;;;12.98;5.68;;;10.50;65.50;;;;;;4991445;28;20153;-73
2023/04/18 09:17:05;;;;;;;11.75;6.13;;;10.50;65.70;;;;;;5013805;28;20050;-73
2023/04/18 09:19:33;;;;;;;11.40;6.23;;;10.60;65.70;;;;;;5020047;28;20056;-73
2023/04/18 09:22:03;;;;;;;10.85;6.50;;;10.60;65.60;;;;;;5021566;28;20050;-73
2023/04/18 09:24:31;;;;;;;12.55;6.20;;;10.60;65.60;;;;;;5001427;28;20048;-73
2023/04/18 09:27:00;;;;;;;9.93;5.47;;;10.60;65.50;;;;;;5008711;28;20045;-73
2023/04/18 09:29:45;;;;;;;11.60;5.38;;;10.60;65.60;;;;;;5016546;28;20065;-73
2023/04/18 09:32:22;;;;;;;17.43;6.27;;;10.60;65.90;;;;;;5005368;28;20058;-73
2023/04/18 09:34:53;;;;;;;13.23;6.72;;;10.70;66.00;;;;;;5023073;28;20060;-73
2023/04/18 09:37:21;;;;;;;12.00;7.00;;;10.70;66.50;;;;;;5007093;28;20044;-73
2023/04/18 09:39:49;;;;;;;11.48;5.97;;;10.70;66.20;;;;;;5023915;28;20060;-74
2023/04/18 09:42:17;;;;;;;10.25;5.30;;;10.80;66.50;;;;;;5024071;28;20046;-73
2023/04/18 09:44:59;;;;;;;11.97;5.27;;;10.80;66.40;;;;;;5000504;28;20054;-74
2023/04/18 09:47:27;;;;;;;13.60;5.57;;;10.90;66.50;;;;;;5002007;28;20109;-73
2023/04/18 09:49:56;;;;;;;12.27;5.45;;;10.90;66.30;;;;;;4986278;28;20057;-73
2023/04/18 09:52:24;;;;;;;13.80;5.80;;;11.00;66.20;;;;;;4998177;28;20593;-73
2023/04/18 09:54:57;;;;;;;10.40;5.88;;;11.00;66.10;;;;;;5002364;28;20054;-73
2023/04/18 09:57:27;;;;;;;8.67;4.20;;;11.10;66.30;;;;;;5019842;28;20057;-73
2023/04/18 10:00:01;;;;;;;24.60;5.97;;;11.10;66.20;;;;;;5024839;28;20046;-73
2023/04/18 10:02:39;;;;;;;11.93;5.60;;;11.10;66.20;;;;;;5006418;28;21020;-73
2023/04/18 10:05:08;;;;;;;12.85;5.88;;;11.10;66.70;;;;;;5008789;28;20551;-74
2023/04/18 10:07:36;;;;;;;11.45;5.80;;;11.20;66.60;;;;;;5023933;28;20187;-73
2023/04/18 10:10:03;;;;;;;12.33;6.73;;;11.30;66.50;;;;;;5000715;28;20046;-72
2023/04/18 10:12:30;;;;;;;11.32;5.97;;;11.30;66.50;;;;;;5004525;28;20050;-72
2023/04/18 10:14:58;;;;;;;11.10;5.55;;;11.40;66.90;;;;;;5026620;28;20045;-72
2023/04/18 10:17:26;;;;;;;12.45;6.70;;;11.50;66.80;;;;;;5028120;28;20050;-72
2023/04/18 10:20:10;;;;;;;12.30;6.70;;;11.50;66.70;;;;;;5026958;28;20107;-72
2023/04/18 10:22:37;;;;;;;10.43;6.10;;;11.60;66.80;;;;;;5011676;28;20105;-73
2023/04/18 10:25:05;;;;;;;10.40;6.55;;;11.70;66.60;;;;;;5023191;28;20057;-72
2023/04/18 10:27:54;;;;;;;11.40;6.50;;;11.80;66.30;;;;;;5014390;28;20056;-73
2023/04/18 10:30:52;;;;;;;29.77;7.28;;;11.90;66.20;;;;;;5003906;28;20062;-72
2023/04/18 10:33:29;;;;;;;10.32;5.78;;;11.90;66.10;;;;;;5009956;28;20050;-72
2023/04/18 10:35:58;;;;;;;10.97;5.90;;;12.00;65.60;;;;;;5008629;28;20108;-72
2023/04/18 10:38:26;;;;;;;9.35;5.38;;;12.10;65.60;;;;;;5007698;28;20074;-72
2023/04/18 10:40:53;;;;;;;9.40;5.78;;;12.20;65.30;;;;;;5024275;28;20053;-72
2023/04/18 10:43:20;;;;;;;13.93;7.22;;;12.30;64.70;;;;;;5004481;28;20057;-73
2023/04/18 10:46:11;;;;;;;9.77;5.90;;;12.30;64.70;;;;;;5024249;28;20082;-72
2023/04/18 10:48:39;;;;;;;12.33;5.80;;;12.50;64.70;;;;;;5024938;28;20176;-72
2023/04/18 10:51:16;;;;;;;15.82;6.10;;;12.50;65.20;;;;;;5002843;28;20057;-72
2023/04/18 10:53:49;;;;;;;10.23;5.97;;;12.60;65.00;;;;;;5026171;28;20114;-71
2023/04/18 10:56:21;;;;;;;12.60;6.10;;;12.70;63.90;;;;;;5011553;28;20131;-72
2023/04/18 10:58:50;;;;;;;12.73;6.50;;;12.80;63.80;;;;;;5006149;28;20080;-72
2023/04/18 11:01:26;;;;;;;11.13;5.73;;;12.90;63.60;;;;;;5000100;28;20057;-72
2023/04/18 11:03:55;;;;;;;9.25;6.07;;;13.00;63.60;;;;;;4998300;28;20061;-72
2023/04/18 11:06:25;;;;;;;7.18;4.68;;;13.10;63.70;;;;;;4998697;28;20583;-72
2023/04/18 11:09:09;;;;;;;8.80;4.82;;;13.10;63.40;;;;;;5025341;28;20056;-72
2023/04/18 11:11:36;;;;;;;9.13;4.90;;;13.20;62.80;;;;;;5004284;28;20050;-72
2023/04/18 11:14:03;;;;;;;9.83;5.40;;;13.30;62.50;;;;;;5006345;28;20584;-72
2023/04/18 11:16:32;;;;;;;9.52;5.13;;;13.30;62.00;;;;;;5023170;28;20528;-72
2023/04/18 11:18:59;;;;;;;8.45;5.05;;;13.50;61.90;;;;;;5009576;28;20188;-72
2023/04/18 11:21:28;;;;;;;8.68;4.07;;;13.50;61.70;;;;;;5006104;28;20045;-72
2023/04/18 11:23:56;;;;;;;8.27;4.82;;;13.60;60.60;;;;;;4993569;28;20153;-72
2023/04/18 11:26:25;;;;;;;7.53;3.73;;;13.60;60.40;;;;;;4990493;28;20058;-72
2023/04/18 11:28:52;;;;;;;8.77;4.80;;;13.70;60.50;;;;;;4998492;28;20052;-72
2023/04/18 11:31:23;;;;;;;8.45;5.47;;;13.80;59.80;;;;;;5025942;28;20073;-72
2023/04/18 11:33:51;;;;;;;7.80;4.32;;;13.90;59.70;;;;;;5026164;28;20050;-73
2023/04/18 11:36:18;;;;;;;8.25;5.00;;;13.90;59.70;;;;;;5021267;28;21023;-72
2023/04/18 11:38:46;;;;;;;8.10;4.47;;;14.00;60.00;;;;;;5027783;28;20058;-73
2023/04/18 11:41:14;;;;;;;16.73;5.72;;;14.00;60.00;;;;;;5004920;28;20137;-72
2023/04/18 11:43:46;;;;;;;28.48;6.97;;;14.10;59.40;;;;;;5023766;28;20054;-73
2023/04/18 11:46:13;;;;;;;10.52;5.53;;;14.10;58.90;;;;;;5004303;28;20129;-72
2023/04/18 11:48:42;;;;;;;8.63;5.45;;;14.20;59.00;;;;;;5023576;28;20141;-72
2023/04/18 11:51:34;;;;;;;8.90;5.80;;;14.20;59.30;;;;;;5003803;28;20132;-73
2023/04/18 11:54:02;;;;;;;9.23;6.13;;;14.30;59.60;;;;;;5004497;28;20054;-72
2023/04/18 11:56:29;;;;;;;9.63;5.82;;;14.40;59.40;;;;;;5005080;28;20061;-72
2023/04/18 11:58:56;;;;;;;9.68;6.53;;;14.50;59.10;;;;;;5003709;28;20068;-72
2023/04/18 12:01:26;;;;;;;11.48;6.40;;;14.50;59.30;;;;;;5021477;28;20124;-72
2023/04/18 12:04:03;;;;;;;11.33;6.03;;;14.60;59.00;;;;;;4983298;28;20125;-72
2023/04/18 12:06:47;;;;;;;10.13;7.03;;;14.60;57.70;;;;;;4996236;28;20109;-73
2023/04/18 12:09:14;;;;;;;12.05;7.30;;;14.60;58.20;;;;;;5014030;28;20710;-72
2023/04/18 12:11:41;;;;;;;11.02;7.05;;;14.70;57.90;;;;;;5024560;28;20488;-72
2023/04/18 12:14:19;;;;;;;13.13;7.25;;;14.70;57.40;;;;;;5002778;28;20064;-72
2023/04/18 12:16:46;;;;;;;13.13;8.03;;;14.70;57.80;;;;;;5005634;28;20420;-72
2023/04/18 12:19:14;;;;;;;11.70;6.80;;;14.80;57.70;;;;;;5020414;28;20050;-72
2023/04/18 12:21:56;;;;;;;11.52;6.95;;;14.80;57.10;;;;;;5008959;28;21072;-72
2023/04/18 12:24:24;;;;;;;12.38;7.35;;;14.90;57.10;;;;;;5009553;28;20136;-72
2023/04/18 12:26:51;;;;;;;12.98;7.90;;;14.90;57.30;;;;;;5004455;28;20056;-72
2023/04/18 12:29:18;;;;;;;10.53;6.53;;;15.00;57.50;;;;;;5019225;28;20980;-72
2023/04/18 12:31:45;;;;;;;26.83;8.32;;;15.00;57.70;;;;;;5004702;28;20080;-72
2023/04/18 12:34:13;;;;;;;14.57;7.57;;;15.10;57.40;;;;;;5022595;28;20969;-72
2023/04/18 12:36:40;;;;;;;13.20;7.18;;;15.20;56.60;;;;;;5025705;28;20053;-72
2023/04/18 12:39:09;;;;;;;11.65;7.47;;;15.20;56.50;;;;;;5010163;28;20059;-72
2023/04/18 12:41:36;;;;;;;15.33;7.40;;;15.30;56.40;;;;;;4990210;28;20479;-72
2023/04/18 12:44:03;;;;;;;11.50;7.57;;;15.40;55.70;;;;;;5010436;28;20057;-72
2023/04/18 12:46:31;;;;;;;12.13;8.20;;;15.40;55.70;;;;;;5010250;28;20837;-72
2023/04/18 12:48:58;;;;;;;12.23;7.50;;;15.40;55.90;;;;;;5009855;28;20050;-72
2023/04/18 12:51:26;;;;;;;11.80;7.32;;;15.50;56.00;;;;;;5028380;28;20161;-72
2023/04/18 12:53:54;;;;;;;11.53;7.10;;;15.50;55.90;;;;;;5019552;28;20054;-72